EZY36DU EPKK-EGPH
Flight info
| Callsign | EZY36DU |
|---|---|
| Flight time | 2h 25m |
| Altitude | 38000 |
| Route | OMFOL DCT DINOV T738 LASIS L986 KOBUS DCT RENEQ DCT AGPED |
| Aircraft | A20N/M-SDE2E3FGHIRWXY/LB1 |
Departure
| Time | 2026-05-05 16:46 |
|---|---|
| Airport | Kraków John Paul II International Airport (EPKK) |
Arrival
| Time | 2026-05-05 19:11 |
|---|---|
| Airport | Edinburgh Airport (EGPH) |
| Time | Latitude | Longitude | Altitude | Speed | Heading |
|---|---|---|---|---|---|
| 2026-05-05 16:12 | 50.07491 | 19.80213 | 791 ft | 0 kts | 168° |
| 2026-05-05 16:38 | 50.07470 | 19.80220 | 790 ft | 4 kts | 168° |
| 2026-05-05 16:38 | 50.07442 | 19.80234 | 790 ft | 4 kts | 148° |
| 2026-05-05 16:39 | 50.07437 | 19.80296 | 790 ft | 8 kts | 78° |
| 2026-05-05 16:39 | 50.07457 | 19.80367 | 790 ft | 7 kts | 43° |
| 2026-05-05 16:39 | 50.07499 | 19.80393 | 790 ft | 7 kts | 17° |
| 2026-05-05 16:39 | 50.07559 | 19.80421 | 790 ft | 10 kts | 15° |
| 2026-05-05 16:40 | 50.07642 | 19.80406 | 790 ft | 12 kts | 348° |
| 2026-05-05 16:40 | 50.07724 | 19.80379 | 790 ft | 12 kts | 347° |
| 2026-05-05 16:40 | 50.07816 | 19.80347 | 790 ft | 14 kts | 347° |
| 2026-05-05 16:40 | 50.07844 | 19.80337 | 790 ft | 0 kts | 347° |
| 2026-05-05 16:41 | 50.07847 | 19.80335 | 790 ft | 0 kts | 346° |
| 2026-05-05 16:43 | 50.07855 | 19.80333 | 790 ft | 5 kts | 346° |
| 2026-05-05 16:43 | 50.07903 | 19.80315 | 790 ft | 11 kts | 347° |
| 2026-05-05 16:43 | 50.07991 | 19.80285 | 789 ft | 7 kts | 347° |
| 2026-05-05 16:43 | 50.08020 | 19.80254 | 789 ft | 4 kts | 284° |
| 2026-05-05 16:44 | 50.08019 | 19.80237 | 790 ft | 0 kts | 258° |
| 2026-05-05 16:45 | 50.07967 | 19.79867 | 789 ft | 68 kts | 257° |
| 2026-05-05 16:45 | 50.07823 | 19.78830 | 793 ft | 126 kts | 258° |
| 2026-05-05 16:45 | 50.07620 | 19.77295 | 971 ft | 150 kts | 255° |
| 2026-05-05 16:46 | 50.07405 | 19.75731 | 1487 ft | 147 kts | 257° |
| 2026-05-05 16:46 | 50.07206 | 19.74173 | 2032 ft | 146 kts | 253° |
| 2026-05-05 16:46 | 50.07034 | 19.72593 | 2552 ft | 154 kts | 256° |
| 2026-05-05 16:46 | 50.06793 | 19.70839 | 2931 ft | 179 kts | 251° |
| 2026-05-05 16:47 | 50.06472 | 19.68852 | 3256 ft | 200 kts | 252° |
| 2026-05-05 16:47 | 50.06117 | 19.66565 | 3575 ft | 233 kts | 253° |
| 2026-05-05 16:47 | 50.05744 | 19.64014 | 4177 ft | 248 kts | 253° |
| 2026-05-05 16:47 | 50.05369 | 19.61369 | 5051 ft | 252 kts | 254° |
| 2026-05-05 16:48 | 50.04992 | 19.58693 | 5977 ft | 254 kts | 254° |
| 2026-05-05 16:48 | 50.04610 | 19.55990 | 6904 ft | 257 kts | 255° |
| 2026-05-05 16:48 | 50.04224 | 19.53256 | 7809 ft | 262 kts | 254° |
| 2026-05-05 16:48 | 50.03827 | 19.50457 | 8689 ft | 268 kts | 255° |
| 2026-05-05 16:49 | 50.03422 | 19.47602 | 9658 ft | 271 kts | 255° |
| 2026-05-05 16:49 | 50.03009 | 19.44688 | 10340 ft | 284 kts | 256° |
| 2026-05-05 16:49 | 50.02840 | 19.41500 | 10713 ft | 310 kts | 273° |
| 2026-05-05 16:49 | 50.03430 | 19.38168 | 11301 ft | 328 kts | 288° |
| 2026-05-05 16:50 | 50.04330 | 19.34857 | 12087 ft | 336 kts | 290° |
| 2026-05-05 16:50 | 50.05285 | 19.31510 | 12903 ft | 341 kts | 290° |
| 2026-05-05 16:50 | 50.06252 | 19.28110 | 13742 ft | 346 kts | 289° |
| 2026-05-05 16:50 | 50.07222 | 19.24660 | 14499 ft | 351 kts | 289° |
| 2026-05-05 16:51 | 50.08200 | 19.21158 | 15273 ft | 355 kts | 289° |
| 2026-05-05 16:51 | 50.09185 | 19.17611 | 16058 ft | 359 kts | 289° |
| 2026-05-05 16:51 | 50.10165 | 19.14069 | 16805 ft | 364 kts | 290° |
| 2026-05-05 16:51 | 50.11171 | 19.10425 | 17556 ft | 368 kts | 290° |
| 2026-05-05 16:52 | 50.12186 | 19.06739 | 18310 ft | 372 kts | 290° |
| 2026-05-05 16:52 | 50.13207 | 19.03027 | 18981 ft | 375 kts | 290° |
| 2026-05-05 16:52 | 50.14237 | 18.99278 | 19660 ft | 377 kts | 290° |
| 2026-05-05 16:52 | 50.15270 | 18.95507 | 20344 ft | 379 kts | 290° |
| 2026-05-05 16:53 | 50.16310 | 18.91707 | 20997 ft | 383 kts | 290° |
| 2026-05-05 16:53 | 50.17355 | 18.87882 | 21686 ft | 385 kts | 291° |
| 2026-05-05 16:53 | 50.18407 | 18.84020 | 22293 ft | 389 kts | 290° |
| 2026-05-05 16:53 | 50.19465 | 18.80137 | 23012 ft | 389 kts | 291° |
| 2026-05-05 16:54 | 50.20527 | 18.76226 | 23550 ft | 393 kts | 291° |
| 2026-05-05 16:54 | 50.21599 | 18.72272 | 23997 ft | 398 kts | 291° |
| 2026-05-05 16:54 | 50.22682 | 18.68273 | 24444 ft | 402 kts | 291° |
| 2026-05-05 16:54 | 50.23757 | 18.64242 | 24989 ft | 402 kts | 290° |
| 2026-05-05 16:55 | 50.24824 | 18.60185 | 25449 ft | 406 kts | 291° |
| 2026-05-05 16:55 | 50.25898 | 18.56089 | 25887 ft | 409 kts | 290° |
| 2026-05-05 16:55 | 50.26975 | 18.51974 | 26435 ft | 409 kts | 290° |
| 2026-05-05 16:55 | 50.28054 | 18.47843 | 26867 ft | 412 kts | 290° |
| 2026-05-05 16:56 | 50.29141 | 18.43674 | 27239 ft | 416 kts | 290° |
| 2026-05-05 16:56 | 50.30241 | 18.39470 | 27670 ft | 419 kts | 290° |
| 2026-05-05 16:56 | 50.31347 | 18.35242 | 28079 ft | 421 kts | 290° |
| 2026-05-05 16:56 | 50.32460 | 18.30985 | 28472 ft | 424 kts | 290° |
| 2026-05-05 16:57 | 50.33575 | 18.26706 | 28890 ft | 426 kts | 290° |
| 2026-05-05 16:57 | 50.34697 | 18.22397 | 29309 ft | 428 kts | 290° |
| 2026-05-05 16:57 | 50.35821 | 18.18067 | 29660 ft | 431 kts | 290° |
| 2026-05-05 16:57 | 50.36950 | 18.13712 | 30024 ft | 433 kts | 290° |
| 2026-05-05 16:58 | 50.38083 | 18.09335 | 30369 ft | 434 kts | 290° |
| 2026-05-05 16:58 | 50.39217 | 18.04940 | 30690 ft | 436 kts | 290° |
| 2026-05-05 16:58 | 50.40336 | 18.00602 | 31132 ft | 434 kts | 290° |
| 2026-05-05 16:58 | 50.41474 | 17.96178 | 31700 ft | 429 kts | 290° |
| 2026-05-05 16:59 | 50.42585 | 17.91854 | 32187 ft | 427 kts | 290° |
| 2026-05-05 16:59 | 50.43689 | 17.87543 | 32607 ft | 425 kts | 290° |
| 2026-05-05 16:59 | 50.44790 | 17.83244 | 33030 ft | 424 kts | 290° |
| 2026-05-05 16:59 | 50.45927 | 17.78989 | 33444 ft | 422 kts | 291° |
| 2026-05-05 17:00 | 50.47108 | 17.74775 | 33845 ft | 421 kts | 292° |
| 2026-05-05 17:00 | 50.48304 | 17.70595 | 34178 ft | 420 kts | 292° |
| 2026-05-05 17:00 | 50.49491 | 17.66474 | 34464 ft | 419 kts | 292° |
| 2026-05-05 17:00 | 50.50689 | 17.62306 | 34745 ft | 419 kts | 292° |
| 2026-05-05 17:01 | 50.51881 | 17.58136 | 35021 ft | 418 kts | 292° |
| 2026-05-05 17:01 | 50.53067 | 17.53964 | 35286 ft | 418 kts | 292° |
| 2026-05-05 17:01 | 50.54246 | 17.49794 | 35560 ft | 417 kts | 292° |
| 2026-05-05 17:01 | 50.55422 | 17.45622 | 35829 ft | 417 kts | 292° |
| 2026-05-05 17:02 | 50.56593 | 17.41455 | 36100 ft | 416 kts | 291° |
| 2026-05-05 17:02 | 50.57758 | 17.37301 | 36358 ft | 416 kts | 291° |
| 2026-05-05 17:02 | 50.58924 | 17.33136 | 36591 ft | 416 kts | 291° |
| 2026-05-05 17:02 | 50.60089 | 17.28969 | 36816 ft | 416 kts | 291° |
| 2026-05-05 17:03 | 50.61250 | 17.24807 | 37046 ft | 415 kts | 291° |
| 2026-05-05 17:03 | 50.62410 | 17.20643 | 37267 ft | 415 kts | 291° |
| 2026-05-05 17:03 | 50.63567 | 17.16483 | 37490 ft | 415 kts | 291° |
| 2026-05-05 17:03 | 50.64724 | 17.12315 | 37701 ft | 415 kts | 291° |
| 2026-05-05 17:04 | 50.67037 | 17.03959 | 37763 ft | 416 kts | 291° |
| 2026-05-05 17:04 | 50.69339 | 16.95616 | 37770 ft | 414 kts | 291° |
| 2026-05-05 17:05 | 50.71765 | 16.87363 | 37754 ft | 415 kts | 293° |
| 2026-05-05 17:05 | 50.74341 | 16.79204 | 37766 ft | 415 kts | 294° |
| 2026-05-05 17:06 | 50.76940 | 16.71061 | 37772 ft | 415 kts | 294° |
| 2026-05-05 17:06 | 50.79537 | 16.62908 | 37771 ft | 415 kts | 294° |
| 2026-05-05 17:07 | 50.82122 | 16.54752 | 37775 ft | 414 kts | 294° |
| 2026-05-05 17:07 | 50.84694 | 16.46603 | 37778 ft | 414 kts | 294° |
| 2026-05-05 17:08 | 50.87259 | 16.38446 | 37779 ft | 414 kts | 293° |
| 2026-05-05 17:08 | 50.89817 | 16.30283 | 37787 ft | 414 kts | 293° |
| 2026-05-05 17:09 | 50.92368 | 16.22118 | 37786 ft | 413 kts | 293° |
| 2026-05-05 17:09 | 50.94911 | 16.13955 | 37796 ft | 412 kts | 293° |
| 2026-05-05 17:10 | 50.97438 | 16.05811 | 37792 ft | 411 kts | 293° |
| 2026-05-05 17:10 | 50.99960 | 15.97656 | 37802 ft | 411 kts | 292° |
| 2026-05-05 17:11 | 51.02474 | 15.89500 | 37799 ft | 411 kts | 292° |
| 2026-05-05 17:11 | 51.04967 | 15.81386 | 37801 ft | 411 kts | 292° |
| 2026-05-05 17:12 | 51.07472 | 15.73207 | 37802 ft | 411 kts | 292° |
| 2026-05-05 17:12 | 51.09970 | 15.65022 | 37802 ft | 411 kts | 292° |
| 2026-05-05 17:13 | 51.12462 | 15.56829 | 37798 ft | 411 kts | 292° |
| 2026-05-05 17:13 | 51.14947 | 15.48630 | 37800 ft | 411 kts | 292° |
| 2026-05-05 17:14 | 51.17429 | 15.40415 | 37801 ft | 411 kts | 292° |
| 2026-05-05 17:14 | 51.19904 | 15.32196 | 37801 ft | 411 kts | 292° |
| 2026-05-05 17:15 | 51.22374 | 15.23963 | 37804 ft | 412 kts | 292° |
| 2026-05-05 17:15 | 51.24838 | 15.15722 | 37807 ft | 411 kts | 292° |
| 2026-05-05 17:16 | 51.27297 | 15.07474 | 37800 ft | 412 kts | 292° |
| 2026-05-05 17:16 | 51.29751 | 14.99210 | 37808 ft | 411 kts | 292° |
| 2026-05-05 17:17 | 51.32197 | 14.90949 | 37809 ft | 411 kts | 291° |
| 2026-05-05 17:17 | 51.34620 | 14.82735 | 37814 ft | 411 kts | 291° |
| 2026-05-05 17:18 | 51.37044 | 14.74489 | 37809 ft | 409 kts | 291° |
| 2026-05-05 17:18 | 51.39459 | 14.66243 | 37812 ft | 409 kts | 291° |
| 2026-05-05 17:19 | 51.41867 | 14.57992 | 37812 ft | 409 kts | 291° |
| 2026-05-05 17:19 | 51.44273 | 14.49722 | 37819 ft | 409 kts | 291° |
| 2026-05-05 17:20 | 51.46675 | 14.41436 | 37812 ft | 410 kts | 291° |
| 2026-05-05 17:20 | 51.49075 | 14.33131 | 37812 ft | 410 kts | 291° |
| 2026-05-05 17:21 | 51.51486 | 14.24828 | 37818 ft | 411 kts | 292° |
| 2026-05-05 17:22 | 51.55036 | 14.13993 | 37816 ft | 412 kts | 294° |
| 2026-05-05 17:22 | 51.57784 | 14.05899 | 37815 ft | 412 kts | 294° |
| 2026-05-05 17:23 | 51.60507 | 13.97788 | 37817 ft | 412 kts | 294° |
| 2026-05-05 17:23 | 51.63209 | 13.89651 | 37817 ft | 412 kts | 294° |
| 2026-05-05 17:24 | 51.65899 | 13.81500 | 37818 ft | 412 kts | 294° |
| 2026-05-05 17:24 | 51.68583 | 13.73343 | 37821 ft | 412 kts | 294° |
| 2026-05-05 17:25 | 51.71262 | 13.65175 | 37825 ft | 412 kts | 293° |
| 2026-05-05 17:25 | 51.73922 | 13.57042 | 37843 ft | 413 kts | 293° |
| 2026-05-05 17:26 | 51.76590 | 13.48857 | 37827 ft | 411 kts | 293° |
| 2026-05-05 17:26 | 51.79242 | 13.40694 | 37823 ft | 411 kts | 293° |
| 2026-05-05 17:27 | 51.81890 | 13.32513 | 37832 ft | 411 kts | 293° |
| 2026-05-05 17:27 | 51.84532 | 13.24328 | 37846 ft | 411 kts | 293° |
| 2026-05-05 17:28 | 51.87170 | 13.16123 | 37829 ft | 412 kts | 292° |
| 2026-05-05 17:28 | 51.89809 | 13.07893 | 37825 ft | 412 kts | 292° |
| 2026-05-05 17:29 | 51.92442 | 12.99652 | 37824 ft | 412 kts | 292° |
| 2026-05-05 17:29 | 51.95068 | 12.91405 | 37824 ft | 412 kts | 292° |
| 2026-05-05 17:30 | 51.97689 | 12.83144 | 37829 ft | 412 kts | 292° |
| 2026-05-05 17:30 | 52.00306 | 12.74869 | 37829 ft | 413 kts | 292° |
| 2026-05-05 17:31 | 52.02927 | 12.66554 | 37832 ft | 414 kts | 292° |
| 2026-05-05 17:31 | 52.05544 | 12.58224 | 37828 ft | 414 kts | 292° |
| 2026-05-05 17:32 | 52.08154 | 12.49889 | 37829 ft | 414 kts | 292° |
| 2026-05-05 17:32 | 52.10758 | 12.41540 | 37828 ft | 414 kts | 292° |
| 2026-05-05 17:33 | 52.13352 | 12.33199 | 37826 ft | 413 kts | 292° |
| 2026-05-05 17:33 | 52.15939 | 12.24849 | 37828 ft | 413 kts | 292° |
| 2026-05-05 17:34 | 52.18520 | 12.16490 | 37825 ft | 413 kts | 292° |
| 2026-05-05 17:34 | 52.21096 | 12.08119 | 37832 ft | 413 kts | 291° |
| 2026-05-05 17:35 | 52.23666 | 11.99739 | 37831 ft | 413 kts | 291° |
| 2026-05-05 17:35 | 52.26229 | 11.91350 | 37845 ft | 413 kts | 291° |
| 2026-05-05 17:36 | 52.28788 | 11.82946 | 37834 ft | 414 kts | 291° |
| 2026-05-05 17:36 | 52.31328 | 11.74575 | 37843 ft | 414 kts | 291° |
| 2026-05-05 17:37 | 52.33880 | 11.66138 | 37844 ft | 414 kts | 291° |
| 2026-05-05 17:37 | 52.36424 | 11.57696 | 37845 ft | 414 kts | 291° |
| 2026-05-05 17:38 | 52.38964 | 11.49240 | 37848 ft | 414 kts | 291° |
| 2026-05-05 17:38 | 52.41498 | 11.40769 | 37848 ft | 415 kts | 291° |
| 2026-05-05 17:39 | 52.44032 | 11.32269 | 37849 ft | 415 kts | 291° |
| 2026-05-05 17:39 | 52.46562 | 11.23755 | 37852 ft | 415 kts | 291° |
| 2026-05-05 17:40 | 52.49085 | 11.15236 | 37853 ft | 414 kts | 291° |
| 2026-05-05 17:40 | 52.51589 | 11.06753 | 37854 ft | 412 kts | 291° |
| 2026-05-05 17:41 | 52.54082 | 10.98268 | 37862 ft | 413 kts | 291° |
| 2026-05-05 17:41 | 52.56573 | 10.89761 | 37860 ft | 413 kts | 291° |
| 2026-05-05 17:42 | 52.59059 | 10.81243 | 37857 ft | 413 kts | 291° |
| 2026-05-05 17:42 | 52.61540 | 10.72711 | 37858 ft | 413 kts | 291° |
| 2026-05-05 17:43 | 52.64014 | 10.64174 | 37862 ft | 413 kts | 291° |
| 2026-05-05 17:43 | 52.66482 | 10.55626 | 37870 ft | 413 kts | 291° |
| 2026-05-05 17:44 | 52.68928 | 10.47122 | 37865 ft | 414 kts | 291° |
| 2026-05-05 17:44 | 52.71391 | 10.38529 | 37865 ft | 414 kts | 291° |
| 2026-05-05 17:45 | 52.73846 | 10.29934 | 37872 ft | 414 kts | 291° |
| 2026-05-05 17:45 | 52.76295 | 10.21327 | 37882 ft | 414 kts | 291° |
| 2026-05-05 17:46 | 52.78739 | 10.12706 | 37886 ft | 414 kts | 291° |
| 2026-05-05 17:46 | 52.81178 | 10.04070 | 37887 ft | 416 kts | 291° |
| 2026-05-05 17:47 | 52.83619 | 9.95395 | 37903 ft | 416 kts | 291° |
| 2026-05-05 17:47 | 52.86054 | 9.86712 | 37883 ft | 416 kts | 291° |
| 2026-05-05 17:48 | 52.88480 | 9.78030 | 37881 ft | 415 kts | 290° |
| 2026-05-05 17:48 | 52.90897 | 9.69342 | 37879 ft | 416 kts | 290° |
| 2026-05-05 17:49 | 52.93310 | 9.60638 | 37878 ft | 416 kts | 290° |
| 2026-05-05 17:49 | 52.95717 | 9.51923 | 37871 ft | 416 kts | 290° |
| 2026-05-05 17:50 | 52.98118 | 9.43199 | 37876 ft | 416 kts | 290° |
| 2026-05-05 17:50 | 53.00510 | 9.34474 | 37876 ft | 415 kts | 290° |
| 2026-05-05 17:51 | 53.02897 | 9.25734 | 37878 ft | 415 kts | 290° |
| 2026-05-05 17:51 | 53.05276 | 9.16987 | 37893 ft | 416 kts | 290° |
| 2026-05-05 17:52 | 53.07653 | 9.08214 | 37880 ft | 417 kts | 290° |
| 2026-05-05 17:52 | 53.10030 | 8.99411 | 37883 ft | 417 kts | 290° |
| 2026-05-05 17:53 | 53.12399 | 8.90603 | 37884 ft | 417 kts | 290° |
| 2026-05-05 17:53 | 53.14763 | 8.81784 | 37883 ft | 417 kts | 290° |
| 2026-05-05 17:54 | 53.17119 | 8.72954 | 37884 ft | 417 kts | 290° |
| 2026-05-05 17:54 | 53.19471 | 8.64107 | 37878 ft | 418 kts | 290° |
| 2026-05-05 17:55 | 53.21818 | 8.55242 | 37875 ft | 418 kts | 290° |
| 2026-05-05 17:55 | 53.24162 | 8.46359 | 37876 ft | 418 kts | 290° |
| 2026-05-05 17:56 | 53.26498 | 8.37469 | 37877 ft | 418 kts | 290° |
| 2026-05-05 17:56 | 53.28828 | 8.28565 | 37875 ft | 418 kts | 290° |
| 2026-05-05 17:57 | 53.31152 | 8.19652 | 37879 ft | 418 kts | 290° |
| 2026-05-05 17:57 | 53.33473 | 8.10712 | 37883 ft | 419 kts | 290° |
| 2026-05-05 17:58 | 53.35791 | 8.01749 | 37887 ft | 420 kts | 290° |
| 2026-05-05 17:58 | 53.38102 | 7.92778 | 37882 ft | 420 kts | 289° |
| 2026-05-05 17:59 | 53.40407 | 7.83796 | 37887 ft | 420 kts | 289° |
| 2026-05-05 17:59 | 53.42705 | 7.74804 | 37892 ft | 420 kts | 289° |
| 2026-05-05 18:00 | 53.44994 | 7.65810 | 37909 ft | 420 kts | 289° |
| 2026-05-05 18:00 | 53.47280 | 7.56789 | 37911 ft | 420 kts | 289° |
| 2026-05-05 18:01 | 53.49559 | 7.47764 | 37899 ft | 420 kts | 289° |
| 2026-05-05 18:01 | 53.51830 | 7.38731 | 37909 ft | 420 kts | 289° |
| 2026-05-05 18:02 | 53.54106 | 7.29644 | 37905 ft | 419 kts | 289° |
| 2026-05-05 18:02 | 53.56359 | 7.20610 | 37918 ft | 420 kts | 288° |
| 2026-05-05 18:03 | 53.58615 | 7.11523 | 37917 ft | 422 kts | 288° |
| 2026-05-05 18:03 | 53.60870 | 7.02409 | 37928 ft | 422 kts | 288° |
| 2026-05-05 18:04 | 53.63118 | 6.93284 | 37928 ft | 422 kts | 288° |
| 2026-05-05 18:04 | 53.65342 | 6.84218 | 37933 ft | 421 kts | 288° |
| 2026-05-05 18:05 | 53.67574 | 6.75084 | 37942 ft | 421 kts | 288° |
| 2026-05-05 18:05 | 53.69802 | 6.65924 | 37939 ft | 422 kts | 288° |
| 2026-05-05 18:06 | 53.72027 | 6.56743 | 37937 ft | 423 kts | 288° |
| 2026-05-05 18:06 | 53.74244 | 6.47550 | 37935 ft | 423 kts | 288° |
| 2026-05-05 18:07 | 53.76096 | 6.39844 | 37938 ft | 423 kts | 288° |
| 2026-05-05 18:07 | 53.78301 | 6.30635 | 37944 ft | 423 kts | 288° |
| 2026-05-05 18:08 | 53.80497 | 6.21419 | 37948 ft | 423 kts | 288° |
| 2026-05-05 18:08 | 53.82692 | 6.12169 | 37945 ft | 423 kts | 288° |
| 2026-05-05 18:09 | 53.84879 | 6.02911 | 37953 ft | 423 kts | 288° |
| 2026-05-05 18:09 | 53.87055 | 5.93666 | 37946 ft | 422 kts | 288° |
| 2026-05-05 18:10 | 53.89219 | 5.84429 | 37952 ft | 421 kts | 288° |
| 2026-05-05 18:10 | 53.91375 | 5.75186 | 37958 ft | 422 kts | 288° |
| 2026-05-05 18:11 | 53.93526 | 5.65923 | 37952 ft | 422 kts | 288° |
| 2026-05-05 18:11 | 53.95674 | 5.56637 | 37952 ft | 422 kts | 288° |
| 2026-05-05 18:12 | 53.97813 | 5.47347 | 37955 ft | 422 kts | 288° |
| 2026-05-05 18:12 | 53.99947 | 5.38041 | 37958 ft | 422 kts | 288° |
| 2026-05-05 18:13 | 54.02070 | 5.28737 | 37957 ft | 422 kts | 288° |
| 2026-05-05 18:13 | 54.04189 | 5.19414 | 37960 ft | 422 kts | 288° |
| 2026-05-05 18:14 | 54.06299 | 5.10087 | 37956 ft | 422 kts | 288° |
| 2026-05-05 18:14 | 54.08400 | 5.00757 | 37958 ft | 422 kts | 288° |
| 2026-05-05 18:15 | 54.10494 | 4.91418 | 37962 ft | 422 kts | 288° |
| 2026-05-05 18:15 | 54.12582 | 4.82066 | 37961 ft | 422 kts | 288° |
| 2026-05-05 18:16 | 54.14660 | 4.72713 | 37959 ft | 422 kts | 288° |
| 2026-05-05 18:16 | 54.16734 | 4.63342 | 37969 ft | 422 kts | 288° |
| 2026-05-05 18:17 | 54.18795 | 4.53982 | 37967 ft | 421 kts | 287° |
| 2026-05-05 18:17 | 54.20849 | 4.44615 | 37948 ft | 421 kts | 287° |
| 2026-05-05 18:18 | 54.22895 | 4.35241 | 37967 ft | 421 kts | 287° |
| 2026-05-05 18:18 | 54.24758 | 4.25849 | 37968 ft | 419 kts | 283° |
| 2026-05-05 18:19 | 54.26376 | 4.16257 | 37967 ft | 420 kts | 283° |
| 2026-05-05 18:19 | 54.27988 | 4.06639 | 37959 ft | 421 kts | 283° |
| 2026-05-05 18:20 | 54.29597 | 3.97019 | 37969 ft | 421 kts | 283° |
| 2026-05-05 18:20 | 54.31201 | 3.87391 | 37960 ft | 421 kts | 283° |
| 2026-05-05 18:21 | 54.32799 | 3.77753 | 37960 ft | 420 kts | 283° |
| 2026-05-05 18:21 | 54.34388 | 3.68112 | 37972 ft | 421 kts | 283° |
| 2026-05-05 18:22 | 54.35972 | 3.58447 | 37963 ft | 421 kts | 283° |
| 2026-05-05 18:22 | 54.37549 | 3.48772 | 37963 ft | 421 kts | 283° |
| 2026-05-05 18:23 | 54.39118 | 3.39096 | 37953 ft | 421 kts | 283° |
| 2026-05-05 18:23 | 54.40679 | 3.29407 | 37962 ft | 421 kts | 283° |
| 2026-05-05 18:24 | 54.42233 | 3.19711 | 37969 ft | 421 kts | 283° |
| 2026-05-05 18:24 | 54.43781 | 3.09995 | 37959 ft | 422 kts | 283° |
| 2026-05-05 18:25 | 54.45323 | 3.00257 | 37962 ft | 422 kts | 282° |
| 2026-05-05 18:25 | 54.46858 | 2.90511 | 37970 ft | 422 kts | 282° |
| 2026-05-05 18:26 | 54.48382 | 2.80772 | 37960 ft | 422 kts | 282° |
| 2026-05-05 18:26 | 54.49898 | 2.71031 | 37967 ft | 422 kts | 282° |
| 2026-05-05 18:27 | 54.51407 | 2.61277 | 37965 ft | 422 kts | 282° |
| 2026-05-05 18:27 | 54.52909 | 2.51513 | 37967 ft | 422 kts | 282° |
| 2026-05-05 18:28 | 54.55136 | 2.36922 | 37967 ft | 422 kts | 282° |
| 2026-05-05 18:28 | 54.56618 | 2.27142 | 37972 ft | 422 kts | 282° |
| 2026-05-05 18:29 | 54.58091 | 2.17355 | 37972 ft | 422 kts | 282° |
| 2026-05-05 18:29 | 54.59557 | 2.07563 | 37975 ft | 422 kts | 282° |
| 2026-05-05 18:30 | 54.61016 | 1.97755 | 37977 ft | 422 kts | 282° |
| 2026-05-05 18:30 | 54.62466 | 1.87947 | 37980 ft | 422 kts | 282° |
| 2026-05-05 18:31 | 54.63907 | 1.78138 | 37985 ft | 422 kts | 282° |
| 2026-05-05 18:31 | 54.65341 | 1.68316 | 37989 ft | 422 kts | 282° |
| 2026-05-05 18:32 | 54.66766 | 1.58495 | 37990 ft | 422 kts | 282° |
| 2026-05-05 18:32 | 54.68184 | 1.48665 | 37993 ft | 422 kts | 282° |
| 2026-05-05 18:33 | 54.69593 | 1.38831 | 37993 ft | 422 kts | 282° |
| 2026-05-05 18:33 | 54.70993 | 1.28992 | 37998 ft | 421 kts | 282° |
| 2026-05-05 18:34 | 54.72377 | 1.19214 | 37998 ft | 421 kts | 281° |
| 2026-05-05 18:34 | 54.73762 | 1.09357 | 37999 ft | 421 kts | 281° |
| 2026-05-05 18:35 | 54.75138 | 0.99506 | 38023 ft | 421 kts | 281° |
| 2026-05-05 18:35 | 54.76500 | 0.89690 | 38010 ft | 418 kts | 281° |
| 2026-05-05 18:36 | 54.77848 | 0.79912 | 38021 ft | 417 kts | 281° |
| 2026-05-05 18:36 | 54.79187 | 0.70133 | 38019 ft | 417 kts | 281° |
| 2026-05-05 18:37 | 54.80520 | 0.60340 | 38019 ft | 418 kts | 281° |
| 2026-05-05 18:37 | 54.81845 | 0.50536 | 38020 ft | 417 kts | 281° |
| 2026-05-05 18:38 | 54.83160 | 0.40742 | 38029 ft | 417 kts | 281° |
| 2026-05-05 18:38 | 54.84468 | 0.30938 | 38024 ft | 417 kts | 281° |
| 2026-05-05 18:39 | 54.85769 | 0.21121 | 38033 ft | 417 kts | 281° |
| 2026-05-05 18:39 | 54.87060 | 0.11312 | 38031 ft | 417 kts | 281° |
| 2026-05-05 18:40 | 54.88343 | 0.01494 | 38037 ft | 417 kts | 281° |
| 2026-05-05 18:40 | 54.89619 | -0.08337 | 38039 ft | 417 kts | 281° |
| 2026-05-05 18:41 | 54.90888 | -0.18176 | 38045 ft | 417 kts | 281° |
| 2026-05-05 18:41 | 54.92148 | -0.28016 | 38042 ft | 417 kts | 281° |
| 2026-05-05 18:42 | 54.93399 | -0.37854 | 38043 ft | 417 kts | 281° |
| 2026-05-05 18:42 | 54.94643 | -0.47708 | 38045 ft | 417 kts | 281° |
| 2026-05-05 18:43 | 54.95878 | -0.57562 | 38047 ft | 417 kts | 281° |
| 2026-05-05 18:43 | 54.97105 | -0.67416 | 38053 ft | 417 kts | 280° |
| 2026-05-05 18:44 | 54.98325 | -0.77279 | 37818 ft | 416 kts | 280° |
| 2026-05-05 18:44 | 54.98930 | -0.82204 | 37547 ft | 416 kts | 280° |
| 2026-05-05 18:44 | 54.99534 | -0.87130 | 37275 ft | 416 kts | 280° |
| 2026-05-05 18:45 | 55.00133 | -0.92034 | 36970 ft | 412 kts | 280° |
| 2026-05-05 18:45 | 55.00718 | -0.96840 | 36480 ft | 411 kts | 279° |
| 2026-05-05 18:45 | 55.01307 | -1.01703 | 35893 ft | 410 kts | 279° |
| 2026-05-05 18:45 | 55.01895 | -1.06571 | 35260 ft | 411 kts | 279° |
| 2026-05-05 18:46 | 55.02483 | -1.11462 | 34640 ft | 413 kts | 279° |
| 2026-05-05 18:46 | 55.03070 | -1.16359 | 34007 ft | 414 kts | 279° |
| 2026-05-05 18:46 | 55.03657 | -1.21279 | 33252 ft | 415 kts | 279° |
| 2026-05-05 18:46 | 55.04242 | -1.26193 | 32665 ft | 413 kts | 279° |
| 2026-05-05 18:47 | 55.04820 | -1.31059 | 32225 ft | 407 kts | 279° |
| 2026-05-05 18:47 | 55.05390 | -1.35878 | 31754 ft | 403 kts | 279° |
| 2026-05-05 18:47 | 55.05952 | -1.40646 | 31287 ft | 399 kts | 279° |
| 2026-05-05 18:47 | 55.06504 | -1.45355 | 30828 ft | 395 kts | 278° |
| 2026-05-05 18:48 | 55.07050 | -1.50028 | 30358 ft | 391 kts | 278° |
| 2026-05-05 18:48 | 55.07590 | -1.54660 | 29839 ft | 388 kts | 278° |
| 2026-05-05 18:48 | 55.08123 | -1.59252 | 29344 ft | 384 kts | 279° |
| 2026-05-05 18:48 | 55.08648 | -1.63791 | 28876 ft | 379 kts | 279° |
| 2026-05-05 18:49 | 55.09165 | -1.68285 | 28413 ft | 376 kts | 279° |
| 2026-05-05 18:49 | 55.09677 | -1.72747 | 27949 ft | 373 kts | 279° |
| 2026-05-05 18:49 | 55.10183 | -1.77170 | 27493 ft | 370 kts | 279° |
| 2026-05-05 18:49 | 55.10685 | -1.81565 | 27036 ft | 368 kts | 279° |
| 2026-05-05 18:50 | 55.11175 | -1.85880 | 26583 ft | 366 kts | 279° |
| 2026-05-05 18:50 | 55.11668 | -1.90231 | 26186 ft | 366 kts | 280° |
| 2026-05-05 18:50 | 55.12296 | -1.94555 | 25964 ft | 370 kts | 288° |
| 2026-05-05 18:50 | 55.13390 | -1.98651 | 25340 ft | 374 kts | 296° |
| 2026-05-05 18:51 | 55.14676 | -2.02599 | 24791 ft | 374 kts | 298° |
| 2026-05-05 18:51 | 55.15987 | -2.06515 | 24274 ft | 373 kts | 298° |
| 2026-05-05 18:51 | 55.17291 | -2.10426 | 23762 ft | 371 kts | 298° |
| 2026-05-05 18:51 | 55.18586 | -2.14332 | 23178 ft | 370 kts | 298° |
| 2026-05-05 18:52 | 55.19866 | -2.18213 | 22658 ft | 367 kts | 298° |
| 2026-05-05 18:52 | 55.21114 | -2.22013 | 22151 ft | 363 kts | 298° |
| 2026-05-05 18:52 | 55.22363 | -2.25825 | 21662 ft | 359 kts | 298° |
| 2026-05-05 18:52 | 55.23599 | -2.29605 | 21173 ft | 356 kts | 298° |
| 2026-05-05 18:53 | 55.24819 | -2.33346 | 20690 ft | 352 kts | 298° |
| 2026-05-05 18:53 | 55.26029 | -2.37062 | 20193 ft | 349 kts | 298° |
| 2026-05-05 18:53 | 55.27228 | -2.40748 | 19713 ft | 346 kts | 298° |
| 2026-05-05 18:53 | 55.28414 | -2.44404 | 19236 ft | 343 kts | 298° |
| 2026-05-05 18:54 | 55.29589 | -2.48029 | 18767 ft | 340 kts | 298° |
| 2026-05-05 18:54 | 55.30755 | -2.51631 | 18285 ft | 338 kts | 298° |
| 2026-05-05 18:54 | 55.31907 | -2.55198 | 17784 ft | 334 kts | 298° |
| 2026-05-05 18:54 | 55.32679 | -2.57590 | 17466 ft | 331 kts | 298° |
| 2026-05-05 18:55 | 55.33806 | -2.61087 | 17005 ft | 327 kts | 298° |
| 2026-05-05 18:55 | 55.34917 | -2.64540 | 16574 ft | 323 kts | 298° |
| 2026-05-05 18:55 | 55.36015 | -2.67958 | 16129 ft | 319 kts | 298° |
| 2026-05-05 18:55 | 55.37099 | -2.71336 | 15690 ft | 316 kts | 298° |
| 2026-05-05 18:56 | 55.38173 | -2.74688 | 15260 ft | 314 kts | 298° |
| 2026-05-05 18:56 | 55.39240 | -2.78024 | 14828 ft | 312 kts | 298° |
| 2026-05-05 18:56 | 55.40298 | -2.81334 | 14415 ft | 309 kts | 298° |
| 2026-05-05 18:56 | 55.41335 | -2.84581 | 14168 ft | 300 kts | 298° |
| 2026-05-05 18:57 | 55.42336 | -2.87721 | 13977 ft | 289 kts | 298° |
| 2026-05-05 18:57 | 55.43309 | -2.90784 | 13643 ft | 284 kts | 298° |
| 2026-05-05 18:57 | 55.44268 | -2.93809 | 13239 ft | 282 kts | 298° |
| 2026-05-05 18:57 | 55.45216 | -2.96813 | 12825 ft | 280 kts | 298° |
| 2026-05-05 18:58 | 55.46154 | -2.99796 | 12412 ft | 278 kts | 298° |
| 2026-05-05 18:58 | 55.47083 | -3.02766 | 12005 ft | 275 kts | 298° |
| 2026-05-05 18:58 | 55.47997 | -3.05672 | 11610 ft | 274 kts | 299° |
| 2026-05-05 18:58 | 55.48937 | -3.08577 | 11173 ft | 274 kts | 299° |
| 2026-05-05 18:59 | 55.49882 | -3.11503 | 10729 ft | 274 kts | 299° |
| 2026-05-05 18:59 | 55.50820 | -3.14420 | 10336 ft | 272 kts | 300° |
| 2026-05-05 18:59 | 55.51754 | -3.17318 | 9959 ft | 271 kts | 300° |
| 2026-05-05 18:59 | 55.52672 | -3.20194 | 9518 ft | 268 kts | 300° |
| 2026-05-05 19:00 | 55.53583 | -3.23063 | 9077 ft | 266 kts | 300° |
| 2026-05-05 19:00 | 55.54482 | -3.25915 | 8629 ft | 266 kts | 300° |
| 2026-05-05 19:00 | 55.55379 | -3.28775 | 8120 ft | 267 kts | 300° |
| 2026-05-05 19:00 | 55.56275 | -3.31646 | 7705 ft | 266 kts | 299° |
| 2026-05-05 19:01 | 55.57165 | -3.34508 | 7209 ft | 268 kts | 300° |
| 2026-05-05 19:01 | 55.58051 | -3.37343 | 6932 ft | 260 kts | 300° |
| 2026-05-05 19:01 | 55.59064 | -3.40001 | 6391 ft | 263 kts | 308° |
| 2026-05-05 19:01 | 55.60194 | -3.42511 | 6088 ft | 257 kts | 309° |
| 2026-05-05 19:02 | 55.61308 | -3.44954 | 5712 ft | 255 kts | 309° |
| 2026-05-05 19:02 | 55.62431 | -3.47431 | 5108 ft | 262 kts | 309° |
| 2026-05-05 19:02 | 55.63612 | -3.49911 | 4583 ft | 264 kts | 315° |
| 2026-05-05 19:02 | 55.64908 | -3.52169 | 4285 ft | 257 kts | 319° |
| 2026-05-05 19:03 | 55.66189 | -3.54308 | 4073 ft | 250 kts | 320° |
| 2026-05-05 19:03 | 55.67416 | -3.56418 | 3990 ft | 243 kts | 319° |
| 2026-05-05 19:03 | 55.68636 | -3.58496 | 3983 ft | 244 kts | 319° |
| 2026-05-05 19:03 | 55.69855 | -3.60595 | 3989 ft | 245 kts | 319° |
| 2026-05-05 19:04 | 55.71073 | -3.62724 | 3989 ft | 246 kts | 319° |
| 2026-05-05 19:04 | 55.72297 | -3.64848 | 3990 ft | 246 kts | 319° |
| 2026-05-05 19:04 | 55.73515 | -3.66919 | 3985 ft | 238 kts | 319° |
| 2026-05-05 19:04 | 55.74715 | -3.68965 | 3997 ft | 241 kts | 324° |
| 2026-05-05 19:05 | 55.76193 | -3.70216 | 3987 ft | 235 kts | 354° |
| 2026-05-05 19:05 | 55.77769 | -3.69904 | 3998 ft | 227 kts | 25° |
| 2026-05-05 19:05 | 55.79116 | -3.68488 | 3991 ft | 225 kts | 38° |
| 2026-05-05 19:05 | 55.80362 | -3.66853 | 3981 ft | 217 kts | 39° |
| 2026-05-05 19:06 | 55.81574 | -3.65410 | 3983 ft | 204 kts | 31° |
| 2026-05-05 19:06 | 55.82838 | -3.64355 | 3990 ft | 200 kts | 27° |
| 2026-05-05 19:06 | 55.84067 | -3.63302 | 3813 ft | 199 kts | 32° |
| 2026-05-05 19:06 | 55.85202 | -3.61921 | 3499 ft | 198 kts | 41° |
| 2026-05-05 19:07 | 55.86211 | -3.60370 | 3413 ft | 184 kts | 44° |
| 2026-05-05 19:07 | 55.87141 | -3.58904 | 3182 ft | 175 kts | 44° |
| 2026-05-05 19:07 | 55.88023 | -3.57431 | 2823 ft | 173 kts | 52° |
| 2026-05-05 19:07 | 55.88693 | -3.55753 | 2625 ft | 159 kts | 61° |
| 2026-05-05 19:08 | 55.89246 | -3.54163 | 2385 ft | 146 kts | 62° |
| 2026-05-05 19:08 | 55.89761 | -3.52645 | 2082 ft | 139 kts | 62° |
| 2026-05-05 19:08 | 55.90247 | -3.51231 | 1842 ft | 128 kts | 63° |
| 2026-05-05 19:08 | 55.90696 | -3.49920 | 1649 ft | 121 kts | 63° |
| 2026-05-05 19:09 | 55.91128 | -3.48646 | 1493 ft | 120 kts | 63° |
| 2026-05-05 19:09 | 55.91553 | -3.47382 | 1327 ft | 121 kts | 62° |
| 2026-05-05 19:09 | 55.91980 | -3.46103 | 1151 ft | 120 kts | 62° |
| 2026-05-05 19:09 | 55.92412 | -3.44831 | 956 ft | 120 kts | 63° |
| 2026-05-05 19:10 | 55.92855 | -3.43578 | 782 ft | 120 kts | 63° |
| 2026-05-05 19:10 | 55.93291 | -3.42310 | 626 ft | 119 kts | 64° |
| 2026-05-05 19:10 | 55.93697 | -3.41043 | 450 ft | 119 kts | 60° |
| 2026-05-05 19:10 | 55.94146 | -3.39780 | 276 ft | 118 kts | 64° |
| 2026-05-05 19:11 | 55.94557 | -3.38548 | 151 ft | 115 kts | 63° |
| 2026-05-05 19:11 | 55.94932 | -3.37433 | 113 ft | 84 kts | 59° |
| 2026-05-05 19:11 | 55.95151 | -3.36797 | 116 ft | 46 kts | 59° |
| 2026-05-05 19:11 | 55.95244 | -3.36405 | 113 ft | 21 kts | 129° |
| 2026-05-05 19:12 | 55.95190 | -3.36346 | 117 ft | 0 kts | 152° |
| 2026-05-05 19:12 | 55.95183 | -3.36340 | 114 ft | 1 kts | 151° |
| 2026-05-05 19:12 | 55.95178 | -3.36334 | 115 ft | 2 kts | 151° |
| 2026-05-05 19:13 | 55.95157 | -3.36312 | 118 ft | 5 kts | 143° |
| 2026-05-05 19:13 | 55.95124 | -3.36309 | 119 ft | 6 kts | 206° |
| 2026-05-05 19:13 | 55.95101 | -3.36364 | 116 ft | 6 kts | 237° |
| 2026-05-05 19:13 | 55.95046 | -3.36386 | 119 ft | 12 kts | 160° |
| 2026-05-05 19:14 | 55.94992 | -3.36460 | 119 ft | 10 kts | 239° |
| 2026-05-05 19:14 | 55.94965 | -3.36541 | 118 ft | 0 kts | 239° |
| 2026-05-05 19:14 | 55.94939 | -3.36552 | 116 ft | 2 kts | 136° |
| 2026-05-05 19:14 | 55.94917 | -3.36508 | 117 ft | 5 kts | 146° |
| 2026-05-05 19:15 | 55.94906 | -3.36497 | 118 ft | 0 kts | 148° |
| 2026-05-05 19:15 | 55.94901 | -3.36492 | 118 ft | 0 kts | 149° |